Terminal Aerodrome Forecast
Issued by NWS Bismarck, ND

Home | Current Version | Previous Version | Graphics & Text | Print | Product List | Glossary On
Versions: 1 2 3 4 5 6 7 8 9 10 11 12 13 14 15 16
768
FTUS43 KBIS 202330
TAFISN
TAF
KISN 202330Z 2100/2124 21005KT P6SM SCT250
     FM210500 29016G24KT P6SM SCT250 WS020/29045KT
     FM210700 28018G26KT P6SM SCT200 WS020/29035KT
     FM211700 27019G28KT P6SM BKN080
      AMD NOT SKED=

USA.gov is the U.S. government's official web portal to all federal, state and local government web resources and services.